sensor_id;sensor_type;location;lat;lon;timestamp;P1;durP1;ratioP1;P2;durP2;ratioP2
77287;SDS011;66345;42.694;23.346;2023-11-21T00:02:04;21.77;;;10.02;;
77287;SDS011;66345;42.694;23.346;2023-11-21T00:04:29;21.37;;;9.73;;
77287;SDS011;66345;42.694;23.346;2023-11-21T00:06:55;20.30;;;9.73;;
77287;SDS011;66345;42.694;23.346;2023-11-21T00:09:20;20.58;;;9.27;;
77287;SDS011;66345;42.694;23.346;2023-11-21T00:11:46;18.20;;;9.07;;
77287;SDS011;66345;42.694;23.346;2023-11-21T00:14:12;22.60;;;9.85;;
77287;SDS011;66345;42.694;23.346;2023-11-21T00:16:39;23.07;;;10.10;;
77287;SDS011;66345;42.694;23.346;2023-11-21T00:19:05;21.33;;;10.05;;
77287;SDS011;66345;42.694;23.346;2023-11-21T00:21:30;21.07;;;9.47;;
77287;SDS011;66345;42.694;23.346;2023-11-21T00:23:56;23.03;;;10.47;;
77287;SDS011;66345;42.694;23.346;2023-11-21T00:26:21;33.20;;;14.73;;
77287;SDS011;66345;42.694;23.346;2023-11-21T00:28:46;31.80;;;15.43;;
77287;SDS011;66345;42.694;23.346;2023-11-21T00:31:12;40.47;;;17.27;;
77287;SDS011;66345;42.694;23.346;2023-11-21T00:33:38;53.03;;;22.20;;
77287;SDS011;66345;42.694;23.346;2023-11-21T00:36:04;51.33;;;23.13;;
77287;SDS011;66345;42.694;23.346;2023-11-21T00:38:34;48.73;;;21.67;;
77287;SDS011;66345;42.694;23.346;2023-11-21T00:41:00;49.50;;;20.83;;
77287;SDS011;66345;42.694;23.346;2023-11-21T00:43:25;43.53;;;21.17;;
77287;SDS011;66345;42.694;23.346;2023-11-21T00:45:51;44.30;;;20.55;;
77287;SDS011;66345;42.694;23.346;2023-11-21T00:48:16;45.70;;;20.17;;
77287;SDS011;66345;42.694;23.346;2023-11-21T00:50:43;40.95;;;19.35;;
77287;SDS011;66345;42.694;23.346;2023-11-21T00:53:09;48.30;;;19.50;;
77287;SDS011;66345;42.694;23.346;2023-11-21T00:55:34;43.03;;;19.88;;
77287;SDS011;66345;42.694;23.346;2023-11-21T00:58:00;45.00;;;20.10;;
77287;SDS011;66345;42.694;23.346;2023-11-21T01:00:28;44.72;;;20.45;;
77287;SDS011;66345;42.694;23.346;2023-11-21T01:02:53;45.13;;;20.50;;
77287;SDS011;66345;42.694;23.346;2023-11-21T01:05:19;42.53;;;20.00;;
77287;SDS011;66345;42.694;23.346;2023-11-21T01:07:44;43.65;;;20.20;;
77287;SDS011;66345;42.694;23.346;2023-11-21T01:10:10;43.33;;;20.13;;
77287;SDS011;66345;42.694;23.346;2023-11-21T01:12:36;44.47;;;20.13;;
77287;SDS011;66345;42.694;23.346;2023-11-21T01:15:06;42.53;;;19.63;;
77287;SDS011;66345;42.694;23.346;2023-11-21T01:17:37;43.58;;;20.83;;
77287;SDS011;66345;42.694;23.346;2023-11-21T01:20:03;43.45;;;20.15;;
77287;SDS011;66345;42.694;23.346;2023-11-21T01:22:35;40.53;;;20.25;;
77287;SDS011;66345;42.694;23.346;2023-11-21T01:25:01;47.03;;;19.80;;
77287;SDS011;66345;42.694;23.346;2023-11-21T01:27:29;44.53;;;21.42;;
77287;SDS011;66345;42.694;23.346;2023-11-21T01:29:55;45.23;;;20.80;;
77287;SDS011;66345;42.694;23.346;2023-11-21T01:32:20;45.47;;;19.60;;
77287;SDS011;66345;42.694;23.346;2023-11-21T01:34:46;43.03;;;20.20;;
77287;SDS011;66345;42.694;23.346;2023-11-21T01:37:12;45.93;;;20.20;;
77287;SDS011;66345;42.694;23.346;2023-11-21T01:39:38;45.10;;;19.05;;
77287;SDS011;66345;42.694;23.346;2023-11-21T01:42:04;43.42;;;18.90;;
77287;SDS011;66345;42.694;23.346;2023-11-21T01:44:30;45.17;;;19.45;;
77287;SDS011;66345;42.694;23.346;2023-11-21T01:46:56;48.38;;;19.42;;
77287;SDS011;66345;42.694;23.346;2023-11-21T01:49:22;40.00;;;17.77;;
77287;SDS011;66345;42.694;23.346;2023-11-21T01:51:48;36.92;;;17.00;;
77287;SDS011;66345;42.694;23.346;2023-11-21T01:54:17;37.30;;;17.03;;
77287;SDS011;66345;42.694;23.346;2023-11-21T01:56:47;36.17;;;15.65;;
77287;SDS011;66345;42.694;23.346;2023-11-21T01:59:14;38.20;;;15.90;;
77287;SDS011;66345;42.694;23.346;2023-11-21T02:01:44;33.17;;;15.75;;
77287;SDS011;66345;42.694;23.346;2023-11-21T02:04:11;31.98;;;15.07;;
77287;SDS011;66345;42.694;23.346;2023-11-21T02:06:37;34.37;;;15.53;;
77287;SDS011;66345;42.694;23.346;2023-11-21T02:09:04;29.00;;;14.48;;
77287;SDS011;66345;42.694;23.346;2023-11-21T02:11:29;28.95;;;13.45;;
77287;SDS011;66345;42.694;23.346;2023-11-21T02:13:56;34.67;;;15.30;;
77287;SDS011;66345;42.694;23.346;2023-11-21T02:16:24;36.60;;;15.57;;
77287;SDS011;66345;42.694;23.346;2023-11-21T02:18:50;36.70;;;14.97;;
77287;SDS011;66345;42.694;23.346;2023-11-21T02:21:17;31.52;;;14.73;;
77287;SDS011;66345;42.694;23.346;2023-11-21T02:23:44;30.30;;;14.60;;
77287;SDS011;66345;42.694;23.346;2023-11-21T02:26:11;28.77;;;13.75;;
77287;SDS011;66345;42.694;23.346;2023-11-21T02:28:37;31.00;;;13.83;;
77287;SDS011;66345;42.694;23.346;2023-11-21T02:31:04;28.30;;;12.18;;
77287;SDS011;66345;42.694;23.346;2023-11-21T02:33:30;32.20;;;13.52;;
77287;SDS011;66345;42.694;23.346;2023-11-21T02:35:59;28.92;;;12.00;;
77287;SDS011;66345;42.694;23.346;2023-11-21T02:38:27;30.38;;;13.10;;
77287;SDS011;66345;42.694;23.346;2023-11-21T02:40:52;33.30;;;13.00;;
77287;SDS011;66345;42.694;23.346;2023-11-21T02:43:18;27.27;;;12.83;;
77287;SDS011;66345;42.694;23.346;2023-11-21T02:45:44;29.17;;;12.80;;
77287;SDS011;66345;42.694;23.346;2023-11-21T02:48:09;29.45;;;12.85;;
77287;SDS011;66345;42.694;23.346;2023-11-21T02:50:34;29.47;;;12.37;;
77287;SDS011;66345;42.694;23.346;2023-11-21T02:53:03;27.63;;;11.85;;
77287;SDS011;66345;42.694;23.346;2023-11-21T02:55:30;30.70;;;13.47;;
77287;SDS011;66345;42.694;23.346;2023-11-21T02:57:59;33.47;;;15.98;;
77287;SDS011;66345;42.694;23.346;2023-11-21T03:00:25;27.23;;;13.05;;
77287;SDS011;66345;42.694;23.346;2023-11-21T03:02:51;30.33;;;13.23;;
77287;SDS011;66345;42.694;23.346;2023-11-21T03:05:16;28.70;;;12.70;;
77287;SDS011;66345;42.694;23.346;2023-11-21T03:07:42;30.40;;;12.85;;
77287;SDS011;66345;42.694;23.346;2023-11-21T03:10:08;28.53;;;12.07;;
77287;SDS011;66345;42.694;23.346;2023-11-21T03:12:34;32.40;;;12.85;;
77287;SDS011;66345;42.694;23.346;2023-11-21T03:14:59;32.00;;;13.43;;
77287;SDS011;66345;42.694;23.346;2023-11-21T03:17:26;28.95;;;13.05;;
77287;SDS011;66345;42.694;23.346;2023-11-21T03:19:52;29.43;;;12.23;;
77287;SDS011;66345;42.694;23.346;2023-11-21T03:22:17;22.40;;;11.02;;
77287;SDS011;66345;42.694;23.346;2023-11-21T03:24:44;25.63;;;11.38;;
77287;SDS011;66345;42.694;23.346;2023-11-21T03:27:09;24.23;;;11.33;;
77287;SDS011;66345;42.694;23.346;2023-11-21T03:29:34;26.15;;;11.43;;
77287;SDS011;66345;42.694;23.346;2023-11-21T03:32:00;27.30;;;12.57;;
77287;SDS011;66345;42.694;23.346;2023-11-21T03:34:26;28.90;;;12.70;;
77287;SDS011;66345;42.694;23.346;2023-11-21T03:36:52;28.85;;;12.60;;
77287;SDS011;66345;42.694;23.346;2023-11-21T03:39:21;28.20;;;12.02;;
77287;SDS011;66345;42.694;23.346;2023-11-21T03:41:47;24.33;;;11.55;;
77287;SDS011;66345;42.694;23.346;2023-11-21T03:44:13;24.07;;;11.47;;
77287;SDS011;66345;42.694;23.346;2023-11-21T03:46:39;28.40;;;11.75;;
77287;SDS011;66345;42.694;23.346;2023-11-21T03:49:05;23.92;;;11.00;;
77287;SDS011;66345;42.694;23.346;2023-11-21T03:51:31;25.67;;;10.77;;
77287;SDS011;66345;42.694;23.346;2023-11-21T03:53:56;21.40;;;10.80;;
77287;SDS011;66345;42.694;23.346;2023-11-21T03:56:21;26.77;;;11.40;;
77287;SDS011;66345;42.694;23.346;2023-11-21T03:58:47;26.03;;;11.27;;
77287;SDS011;66345;42.694;23.346;2023-11-21T04:01:23;27.35;;;11.45;;
77287;SDS011;66345;42.694;23.346;2023-11-21T04:03:49;23.95;;;11.65;;
77287;SDS011;66345;42.694;23.346;2023-11-21T04:06:15;25.58;;;11.00;;
77287;SDS011;66345;42.694;23.346;2023-11-21T04:08:42;22.67;;;11.35;;
77287;SDS011;66345;42.694;23.346;2023-11-21T04:11:09;24.80;;;10.93;;
77287;SDS011;66345;42.694;23.346;2023-11-21T04:13:36;26.10;;;11.50;;
77287;SDS011;66345;42.694;23.346;2023-11-21T04:16:03;24.85;;;11.20;;
77287;SDS011;66345;42.694;23.346;2023-11-21T04:18:29;25.25;;;10.63;;
77287;SDS011;66345;42.694;23.346;2023-11-21T04:20:55;22.73;;;11.20;;
77287;SDS011;66345;42.694;23.346;2023-11-21T04:23:20;23.47;;;12.20;;
77287;SDS011;66345;42.694;23.346;2023-11-21T04:25:45;25.57;;;11.47;;
77287;SDS011;66345;42.694;23.346;2023-11-21T04:28:11;25.42;;;11.05;;
77287;SDS011;66345;42.694;23.346;2023-11-21T04:30:37;26.03;;;11.60;;
77287;SDS011;66345;42.694;23.346;2023-11-21T04:33:04;28.33;;;13.35;;
77287;SDS011;66345;42.694;23.346;2023-11-21T04:35:30;32.13;;;14.90;;
77287;SDS011;66345;42.694;23.346;2023-11-21T04:37:55;30.08;;;13.93;;
77287;SDS011;66345;42.694;23.346;2023-11-21T04:40:22;34.33;;;14.60;;
77287;SDS011;66345;42.694;23.346;2023-11-21T04:42:48;31.38;;;14.40;;
77287;SDS011;66345;42.694;23.346;2023-11-21T04:45:13;29.97;;;14.40;;
77287;SDS011;66345;42.694;23.346;2023-11-21T04:47:39;29.77;;;14.65;;
77287;SDS011;66345;42.694;23.346;2023-11-21T04:50:04;34.72;;;15.73;;
77287;SDS011;66345;42.694;23.346;2023-11-21T04:52:31;34.03;;;14.70;;
77287;SDS011;66345;42.694;23.346;2023-11-21T04:54:57;30.33;;;14.27;;
77287;SDS011;66345;42.694;23.346;2023-11-21T04:57:23;32.28;;;14.57;;
77287;SDS011;66345;42.694;23.346;2023-11-21T04:59:49;28.48;;;13.23;;
77287;SDS011;66345;42.694;23.346;2023-11-21T05:02:15;29.85;;;13.57;;
77287;SDS011;66345;42.694;23.346;2023-11-21T05:04:41;29.27;;;14.13;;
77287;SDS011;66345;42.694;23.346;2023-11-21T05:07:08;25.98;;;14.07;;
77287;SDS011;66345;42.694;23.346;2023-11-21T05:09:33;30.50;;;15.33;;
77287;SDS011;66345;42.694;23.346;2023-11-21T05:11:59;32.85;;;14.50;;
77287;SDS011;66345;42.694;23.346;2023-11-21T05:14:25;29.13;;;14.73;;
77287;SDS011;66345;42.694;23.346;2023-11-21T05:16:50;30.20;;;13.95;;
77287;SDS011;66345;42.694;23.346;2023-11-21T05:19:17;31.70;;;14.47;;
77287;SDS011;66345;42.694;23.346;2023-11-21T05:21:42;29.70;;;13.80;;
77287;SDS011;66345;42.694;23.346;2023-11-21T05:24:08;30.23;;;14.73;;
77287;SDS011;66345;42.694;23.346;2023-11-21T05:26:34;31.00;;;14.40;;
77287;SDS011;66345;42.694;23.346;2023-11-21T05:29:00;28.57;;;13.67;;
77287;SDS011;66345;42.694;23.346;2023-11-21T05:31:25;35.22;;;16.65;;
77287;SDS011;66345;42.694;23.346;2023-11-21T05:33:52;30.30;;;14.63;;
77287;SDS011;66345;42.694;23.346;2023-11-21T05:36:18;31.38;;;14.98;;
77287;SDS011;66345;42.694;23.346;2023-11-21T05:38:43;35.10;;;14.75;;
77287;SDS011;66345;42.694;23.346;2023-11-21T05:41:09;31.83;;;14.77;;
77287;SDS011;66345;42.694;23.346;2023-11-21T05:43:38;32.55;;;13.73;;
77287;SDS011;66345;42.694;23.346;2023-11-21T05:46:04;34.67;;;15.63;;
77287;SDS011;66345;42.694;23.346;2023-11-21T05:48:29;33.95;;;15.77;;
77287;SDS011;66345;42.694;23.346;2023-11-21T05:50:55;31.13;;;15.27;;
77287;SDS011;66345;42.694;23.346;2023-11-21T05:53:20;36.27;;;15.50;;
77287;SDS011;66345;42.694;23.346;2023-11-21T05:55:46;34.55;;;15.65;;
77287;SDS011;66345;42.694;23.346;2023-11-21T05:58:11;30.37;;;14.47;;
77287;SDS011;66345;42.694;23.346;2023-11-21T06:00:38;32.20;;;14.82;;
77287;SDS011;66345;42.694;23.346;2023-11-21T06:03:04;33.00;;;16.10;;
77287;SDS011;66345;42.694;23.346;2023-11-21T06:05:31;36.13;;;16.33;;
77287;SDS011;66345;42.694;23.346;2023-11-21T06:07:58;31.33;;;15.07;;
77287;SDS011;66345;42.694;23.346;2023-11-21T06:10:24;29.50;;;15.07;;
77287;SDS011;66345;42.694;23.346;2023-11-21T06:12:50;30.83;;;14.00;;
77287;SDS011;66345;42.694;23.346;2023-11-21T06:15:18;37.50;;;16.17;;
77287;SDS011;66345;42.694;23.346;2023-11-21T06:17:46;31.70;;;15.15;;
77287;SDS011;66345;42.694;23.346;2023-11-21T06:20:14;30.17;;;14.95;;
77287;SDS011;66345;42.694;23.346;2023-11-21T06:22:43;30.52;;;14.32;;
77287;SDS011;66345;42.694;23.346;2023-11-21T06:25:10;32.57;;;15.80;;
77287;SDS011;66345;42.694;23.346;2023-11-21T06:27:39;35.30;;;16.17;;
77287;SDS011;66345;42.694;23.346;2023-11-21T06:30:06;31.23;;;15.60;;
77287;SDS011;66345;42.694;23.346;2023-11-21T06:32:34;37.00;;;16.65;;
77287;SDS011;66345;42.694;23.346;2023-11-21T06:35:01;43.05;;;18.92;;
77287;SDS011;66345;42.694;23.346;2023-11-21T06:37:28;40.30;;;18.70;;
77287;SDS011;66345;42.694;23.346;2023-11-21T06:39:54;41.35;;;20.42;;
77287;SDS011;66345;42.694;23.346;2023-11-21T06:42:19;43.40;;;19.95;;
77287;SDS011;66345;42.694;23.346;2023-11-21T06:44:46;46.67;;;20.33;;
77287;SDS011;66345;42.694;23.346;2023-11-21T06:47:11;37.75;;;19.33;;
77287;SDS011;66345;42.694;23.346;2023-11-21T06:49:37;42.03;;;21.17;;
77287;SDS011;66345;42.694;23.346;2023-11-21T06:52:03;34.60;;;17.10;;
77287;SDS011;66345;42.694;23.346;2023-11-21T06:54:30;37.13;;;17.27;;
77287;SDS011;66345;42.694;23.346;2023-11-21T06:56:56;36.05;;;17.88;;
77287;SDS011;66345;42.694;23.346;2023-11-21T06:59:22;34.67;;;17.33;;
77287;SDS011;66345;42.694;23.346;2023-11-21T07:01:48;35.50;;;17.42;;
77287;SDS011;66345;42.694;23.346;2023-11-21T07:04:14;39.28;;;17.73;;
77287;SDS011;66345;42.694;23.346;2023-11-21T07:06:40;32.90;;;15.60;;
77287;SDS011;66345;42.694;23.346;2023-11-21T07:09:05;33.72;;;16.48;;
77287;SDS011;66345;42.694;23.346;2023-11-21T07:11:33;32.27;;;15.10;;
77287;SDS011;66345;42.694;23.346;2023-11-21T07:13:59;29.52;;;14.82;;
77287;SDS011;66345;42.694;23.346;2023-11-21T07:16:27;31.80;;;14.27;;
77287;SDS011;66345;42.694;23.346;2023-11-21T07:18:53;38.57;;;14.83;;
77287;SDS011;66345;42.694;23.346;2023-11-21T07:21:20;28.42;;;14.93;;
77287;SDS011;66345;42.694;23.346;2023-11-21T07:23:45;26.73;;;14.00;;
77287;SDS011;66345;42.694;23.346;2023-11-21T07:26:11;24.63;;;12.67;;
77287;SDS011;66345;42.694;23.346;2023-11-21T07:28:37;25.23;;;12.27;;
77287;SDS011;66345;42.694;23.346;2023-11-21T07:31:02;23.43;;;11.63;;
77287;SDS011;66345;42.694;23.346;2023-11-21T07:33:28;27.23;;;12.93;;
77287;SDS011;66345;42.694;23.346;2023-11-21T07:35:54;21.60;;;12.20;;
77287;SDS011;66345;42.694;23.346;2023-11-21T07:38:19;27.63;;;12.23;;
77287;SDS011;66345;42.694;23.346;2023-11-21T07:40:44;24.20;;;11.67;;
77287;SDS011;66345;42.694;23.346;2023-11-21T07:43:10;26.77;;;12.10;;
77287;SDS011;66345;42.694;23.346;2023-11-21T07:45:35;35.63;;;16.50;;
77287;SDS011;66345;42.694;23.346;2023-11-21T07:48:01;38.53;;;18.87;;
77287;SDS011;66345;42.694;23.346;2023-11-21T07:50:28;32.13;;;18.98;;
77287;SDS011;66345;42.694;23.346;2023-11-21T07:52:54;26.52;;;15.90;;
77287;SDS011;66345;42.694;23.346;2023-11-21T07:55:20;35.03;;;19.13;;
77287;SDS011;66345;42.694;23.346;2023-11-21T07:57:46;42.55;;;20.98;;
77287;SDS011;66345;42.694;23.346;2023-11-21T08:00:12;40.40;;;20.13;;
77287;SDS011;66345;42.694;23.346;2023-11-21T08:02:40;33.17;;;20.08;;
77287;SDS011;66345;42.694;23.346;2023-11-21T08:05:07;32.72;;;18.85;;
77287;SDS011;66345;42.694;23.346;2023-11-21T08:07:34;31.52;;;17.40;;
77287;SDS011;66345;42.694;23.346;2023-11-21T08:10:00;34.93;;;17.57;;
77287;SDS011;66345;42.694;23.346;2023-11-21T08:12:26;36.33;;;19.40;;
77287;SDS011;66345;42.694;23.346;2023-11-21T08:14:53;34.00;;;17.33;;
77287;SDS011;66345;42.694;23.346;2023-11-21T08:17:18;29.38;;;16.52;;
77287;SDS011;66345;42.694;23.346;2023-11-21T08:19:45;33.17;;;18.27;;
77287;SDS011;66345;42.694;23.346;2023-11-21T08:22:14;33.17;;;18.10;;
77287;SDS011;66345;42.694;23.346;2023-11-21T08:24:43;36.37;;;18.10;;
77287;SDS011;66345;42.694;23.346;2023-11-21T08:27:09;30.00;;;17.17;;
77287;SDS011;66345;42.694;23.346;2023-11-21T08:29:34;42.65;;;19.75;;
77287;SDS011;66345;42.694;23.346;2023-11-21T08:32:01;34.30;;;19.00;;
77287;SDS011;66345;42.694;23.346;2023-11-21T08:34:27;34.90;;;18.63;;
77287;SDS011;66345;42.694;23.346;2023-11-21T08:36:53;36.45;;;19.35;;
77287;SDS011;66345;42.694;23.346;2023-11-21T08:39:20;31.42;;;18.27;;
77287;SDS011;66345;42.694;23.346;2023-11-21T08:41:49;36.20;;;19.40;;
77287;SDS011;66345;42.694;23.346;2023-11-21T08:44:15;33.80;;;18.38;;
77287;SDS011;66345;42.694;23.346;2023-11-21T08:46:43;39.15;;;19.17;;
77287;SDS011;66345;42.694;23.346;2023-11-21T08:49:10;29.33;;;17.90;;
77287;SDS011;66345;42.694;23.346;2023-11-21T08:51:37;35.83;;;18.65;;
77287;SDS011;66345;42.694;23.346;2023-11-21T08:54:02;30.00;;;17.40;;
77287;SDS011;66345;42.694;23.346;2023-11-21T08:56:32;34.70;;;18.58;;
77287;SDS011;66345;42.694;23.346;2023-11-21T08:58:57;37.37;;;18.83;;
77287;SDS011;66345;42.694;23.346;2023-11-21T09:01:22;29.90;;;17.23;;
77287;SDS011;66345;42.694;23.346;2023-11-21T09:03:48;33.70;;;17.37;;
77287;SDS011;66345;42.694;23.346;2023-11-21T09:06:15;37.88;;;19.23;;
77287;SDS011;66345;42.694;23.346;2023-11-21T09:08:40;35.63;;;18.70;;
77287;SDS011;66345;42.694;23.346;2023-11-21T09:11:07;36.00;;;19.20;;
77287;SDS011;66345;42.694;23.346;2023-11-21T09:13:33;37.78;;;20.63;;
77287;SDS011;66345;42.694;23.346;2023-11-21T09:15:59;41.77;;;21.47;;
77287;SDS011;66345;42.694;23.346;2023-11-21T09:18:25;47.13;;;23.27;;
77287;SDS011;66345;42.694;23.346;2023-11-21T09:20:50;45.10;;;24.20;;
77287;SDS011;66345;42.694;23.346;2023-11-21T09:23:16;43.90;;;23.20;;
77287;SDS011;66345;42.694;23.346;2023-11-21T09:25:41;47.20;;;22.58;;
77287;SDS011;66345;42.694;23.346;2023-11-21T09:28:11;40.20;;;22.70;;
77287;SDS011;66345;42.694;23.346;2023-11-21T09:30:36;39.15;;;20.33;;
77287;SDS011;66345;42.694;23.346;2023-11-21T09:33:03;42.22;;;21.40;;
77287;SDS011;66345;42.694;23.346;2023-11-21T09:35:33;41.53;;;22.23;;
77287;SDS011;66345;42.694;23.346;2023-11-21T09:37:59;37.23;;;22.07;;
77287;SDS011;66345;42.694;23.346;2023-11-21T09:40:26;44.45;;;23.08;;
77287;SDS011;66345;42.694;23.346;2023-11-21T09:42:55;40.93;;;21.70;;
77287;SDS011;66345;42.694;23.346;2023-11-21T09:45:26;41.25;;;21.90;;
77287;SDS011;66345;42.694;23.346;2023-11-21T09:47:52;38.10;;;19.73;;
77287;SDS011;66345;42.694;23.346;2023-11-21T09:50:20;41.53;;;21.42;;
77287;SDS011;66345;42.694;23.346;2023-11-21T09:55:47;35.20;;;18.67;;
77287;SDS011;66345;42.694;23.346;2023-11-21T09:58:16;36.60;;;18.88;;
77287;SDS011;66345;42.694;23.346;2023-11-21T10:00:43;35.95;;;19.92;;
77287;SDS011;66345;42.694;23.346;2023-11-21T10:03:10;31.73;;;18.67;;
77287;SDS011;66345;42.694;23.346;2023-11-21T10:05:37;27.95;;;16.33;;
77287;SDS011;66345;42.694;23.346;2023-11-21T10:08:09;29.60;;;16.13;;
77287;SDS011;66345;42.694;23.346;2023-11-21T10:10:36;25.48;;;15.25;;
77287;SDS011;66345;42.694;23.346;2023-11-21T10:13:03;28.70;;;14.38;;
77287;SDS011;66345;42.694;23.346;2023-11-21T10:15:33;26.17;;;14.55;;
77287;SDS011;66345;42.694;23.346;2023-11-21T10:18:00;28.63;;;15.10;;
77287;SDS011;66345;42.694;23.346;2023-11-21T10:20:31;25.15;;;15.52;;
77287;SDS011;66345;42.694;23.346;2023-11-21T10:23:03;25.88;;;14.15;;
77287;SDS011;66345;42.694;23.346;2023-11-21T10:25:28;23.47;;;13.73;;
77287;SDS011;66345;42.694;23.346;2023-11-21T10:27:57;24.35;;;15.10;;
77287;SDS011;66345;42.694;23.346;2023-11-21T10:33:02;24.23;;;14.38;;
77287;SDS011;66345;42.694;23.346;2023-11-21T10:35:47;23.77;;;14.43;;
77287;SDS011;66345;42.694;23.346;2023-11-21T10:38:17;30.33;;;14.55;;
77287;SDS011;66345;42.694;23.346;2023-11-21T10:40:43;23.70;;;13.60;;
77287;SDS011;66345;42.694;23.346;2023-11-21T10:43:10;22.42;;;12.20;;
77287;SDS011;66345;42.694;23.346;2023-11-21T10:45:37;24.58;;;12.75;;
77287;SDS011;66345;42.694;23.346;2023-11-21T10:48:04;21.92;;;12.50;;
77287;SDS011;66345;42.694;23.346;2023-11-21T10:50:33;22.98;;;13.98;;
77287;SDS011;66345;42.694;23.346;2023-11-21T10:53:05;22.65;;;12.93;;
77287;SDS011;66345;42.694;23.346;2023-11-21T10:55:31;22.50;;;11.90;;
77287;SDS011;66345;42.694;23.346;2023-11-21T10:58:01;20.60;;;11.77;;
77287;SDS011;66345;42.694;23.346;2023-11-21T11:00:30;24.92;;;13.55;;
77287;SDS011;66345;42.694;23.346;2023-11-21T11:02:56;26.38;;;13.68;;
77287;SDS011;66345;42.694;23.346;2023-11-21T11:05:22;25.70;;;14.00;;
77287;SDS011;66345;42.694;23.346;2023-11-21T11:08:11;23.02;;;12.88;;
77287;SDS011;66345;42.694;23.346;2023-11-21T11:10:37;24.00;;;13.47;;
77287;SDS011;66345;42.694;23.346;2023-11-21T11:13:03;26.90;;;14.18;;
77287;SDS011;66345;42.694;23.346;2023-11-21T11:15:29;24.70;;;14.30;;
77287;SDS011;66345;42.694;23.346;2023-11-21T11:17:55;26.60;;;14.87;;
77287;SDS011;66345;42.694;23.346;2023-11-21T11:20:22;27.13;;;14.05;;
77287;SDS011;66345;42.694;23.346;2023-11-21T11:22:53;29.10;;;14.52;;
77287;SDS011;66345;42.694;23.346;2023-11-21T11:28:41;26.08;;;14.73;;
77287;SDS011;66345;42.694;23.346;2023-11-21T11:34:17;19.80;;;11.43;;
77287;SDS011;66345;42.694;23.346;2023-11-21T11:36:55;21.98;;;11.10;;
77287;SDS011;66345;42.694;23.346;2023-11-21T11:39:29;24.05;;;11.88;;
77287;SDS011;66345;42.694;23.346;2023-11-21T11:42:07;24.43;;;13.40;;
77287;SDS011;66345;42.694;23.346;2023-11-21T11:47:30;25.95;;;14.40;;
77287;SDS011;66345;42.694;23.346;2023-11-21T11:50:06;27.67;;;13.88;;
77287;SDS011;66345;42.694;23.346;2023-11-21T11:55:16;26.70;;;13.10;;
77287;SDS011;66345;42.694;23.346;2023-11-21T11:57:49;25.05;;;12.90;;
77287;SDS011;66345;42.694;23.346;2023-11-21T12:02:56;28.45;;;15.13;;
77287;SDS011;66345;42.694;23.346;2023-11-21T12:05:24;31.33;;;16.23;;
77287;SDS011;66345;42.694;23.346;2023-11-21T12:07:59;29.23;;;14.87;;
77287;SDS011;66345;42.694;23.346;2023-11-21T12:10:27;32.33;;;16.83;;
77287;SDS011;66345;42.694;23.346;2023-11-21T12:15:26;35.75;;;17.55;;
77287;SDS011;66345;42.694;23.346;2023-11-21T12:17:54;32.60;;;16.88;;
77287;SDS011;66345;42.694;23.346;2023-11-21T12:20:20;35.17;;;17.40;;
77287;SDS011;66345;42.694;23.346;2023-11-21T12:22:48;35.72;;;15.85;;
77287;SDS011;66345;42.694;23.346;2023-11-21T12:25:32;32.97;;;15.57;;
77287;SDS011;66345;42.694;23.346;2023-11-21T12:27:59;35.63;;;16.07;;
77287;SDS011;66345;42.694;23.346;2023-11-21T12:30:26;32.55;;;17.08;;
77287;SDS011;66345;42.694;23.346;2023-11-21T12:33:00;30.30;;;15.80;;
77287;SDS011;66345;42.694;23.346;2023-11-21T12:35:27;31.85;;;15.68;;
77287;SDS011;66345;42.694;23.346;2023-11-21T12:37:55;31.00;;;15.82;;
77287;SDS011;66345;42.694;23.346;2023-11-21T12:40:24;33.73;;;14.50;;
77287;SDS011;66345;42.694;23.346;2023-11-21T12:42:54;33.13;;;14.45;;
77287;SDS011;66345;42.694;23.346;2023-11-21T12:45:23;31.15;;;14.63;;
77287;SDS011;66345;42.694;23.346;2023-11-21T12:47:56;30.63;;;14.73;;
77287;SDS011;66345;42.694;23.346;2023-11-21T12:50:28;30.35;;;13.57;;
77287;SDS011;66345;42.694;23.346;2023-11-21T12:53:03;29.47;;;13.60;;
77287;SDS011;66345;42.694;23.346;2023-11-21T12:55:33;31.33;;;14.15;;
77287;SDS011;66345;42.694;23.346;2023-11-21T12:58:03;24.95;;;12.95;;
77287;SDS011;66345;42.694;23.346;2023-11-21T13:00:39;29.52;;;14.23;;
77287;SDS011;66345;42.694;23.346;2023-11-21T13:03:08;27.05;;;13.18;;
77287;SDS011;66345;42.694;23.346;2023-11-21T13:05:36;27.17;;;14.23;;
77287;SDS011;66345;42.694;23.346;2023-11-21T13:08:07;29.70;;;13.23;;
77287;SDS011;66345;42.694;23.346;2023-11-21T13:10:35;27.70;;;12.90;;
77287;SDS011;66345;42.694;23.346;2023-11-21T13:13:02;20.98;;;12.20;;
77287;SDS011;66345;42.694;23.346;2023-11-21T13:15:39;24.00;;;12.32;;
77287;SDS011;66345;42.694;23.346;2023-11-21T13:18:08;28.90;;;14.03;;
77287;SDS011;66345;42.694;23.346;2023-11-21T13:20:36;29.23;;;13.85;;
77287;SDS011;66345;42.694;23.346;2023-11-21T13:23:06;23.58;;;12.48;;
77287;SDS011;66345;42.694;23.346;2023-11-21T13:25:33;23.52;;;11.98;;
77287;SDS011;66345;42.694;23.346;2023-11-21T13:27:59;23.48;;;11.95;;
77287;SDS011;66345;42.694;23.346;2023-11-21T13:30:25;23.77;;;11.82;;
77287;SDS011;66345;42.694;23.346;2023-11-21T13:32:53;20.92;;;12.02;;
77287;SDS011;66345;42.694;23.346;2023-11-21T13:35:22;25.35;;;13.77;;
77287;SDS011;66345;42.694;23.346;2023-11-21T13:38:10;26.90;;;13.30;;
77287;SDS011;66345;42.694;23.346;2023-11-21T13:40:38;26.47;;;14.03;;
77287;SDS011;66345;42.694;23.346;2023-11-21T13:43:11;27.05;;;14.52;;
77287;SDS011;66345;42.694;23.346;2023-11-21T13:45:41;25.85;;;14.50;;
77287;SDS011;66345;42.694;23.346;2023-11-21T13:48:08;30.02;;;14.63;;
77287;SDS011;66345;42.694;23.346;2023-11-21T13:50:38;30.83;;;14.88;;
77287;SDS011;66345;42.694;23.346;2023-11-21T13:53:32;31.43;;;14.23;;
77287;SDS011;66345;42.694;23.346;2023-11-21T13:55:58;34.95;;;16.60;;
77287;SDS011;66345;42.694;23.346;2023-11-21T13:58:23;32.00;;;15.83;;
77287;SDS011;66345;42.694;23.346;2023-11-21T14:01:08;35.80;;;16.45;;
77287;SDS011;66345;42.694;23.346;2023-11-21T14:04:03;32.78;;;16.27;;
77287;SDS011;66345;42.694;23.346;2023-11-21T14:06:45;35.00;;;16.25;;
77287;SDS011;66345;42.694;23.346;2023-11-21T14:09:17;32.97;;;17.90;;
77287;SDS011;66345;42.694;23.346;2023-11-21T14:11:58;35.63;;;16.50;;
77287;SDS011;66345;42.694;23.346;2023-11-21T14:14:25;32.67;;;16.88;;
77287;SDS011;66345;42.694;23.346;2023-11-21T14:16:53;38.10;;;18.17;;
77287;SDS011;66345;42.694;23.346;2023-11-21T14:19:20;35.60;;;17.48;;
77287;SDS011;66345;42.694;23.346;2023-11-21T14:21:47;34.22;;;17.17;;
77287;SDS011;66345;42.694;23.346;2023-11-21T14:24:15;30.23;;;17.37;;
77287;SDS011;66345;42.694;23.346;2023-11-21T14:26:43;34.88;;;17.30;;
77287;SDS011;66345;42.694;23.346;2023-11-21T14:29:11;29.35;;;17.35;;
77287;SDS011;66345;42.694;23.346;2023-11-21T14:31:39;31.15;;;17.35;;
77287;SDS011;66345;42.694;23.346;2023-11-21T14:34:04;37.87;;;17.53;;